Bissett, Canada
Current Conditions -  °F | °C
As of 9:00 PM on Tuesday 25 Nov 2014 (Local Time) from CYRL Reporting Station
Clear Clear  
Wind Chill: -16°   Ceiling: Unl
Heat Index: -4°   Visibility: 15mi
Dew Point: -9°   Wind: 6mph
Humidity: 78%   Direction: 350°N
Pressure: 30.08"   Gusts: NA
Location:  51.02°N, 95.67°W
Report Text: CYRL 260300Z 35005KT 15SM SKC M20/M23 A3008 RMK LAST STFD OBS/NEXT 26 1000 UTC SLP226
Loading
Personal Weather Stations






























Interactive Weather Map New forecast layout! Learn more

10-Day Weather Forecast

Advertisements
Track Severe Weather on mobile